sensor_id;sensor_type;location;lat;lon;timestamp;pressure;altitude;pressure_sealevel;temperature;humidity
59757;BME280;45631;51.962;5.974;2023-02-02T00:01:40;101881.16;;;5.93;100.00
59757;BME280;45631;51.962;5.974;2023-02-02T00:04:14;101877.66;;;5.95;100.00
59757;BME280;45631;51.962;5.974;2023-02-02T00:06:51;101884.56;;;5.96;100.00
59757;BME280;45631;51.962;5.974;2023-02-02T00:09:21;101886.28;;;5.97;100.00
59757;BME280;45631;51.962;5.974;2023-02-02T00:11:49;101889.88;;;5.92;100.00
59757;BME280;45631;51.962;5.974;2023-02-02T00:14:17;101894.16;;;5.95;100.00
59757;BME280;45631;51.962;5.974;2023-02-02T00:16:46;101888.03;;;5.98;100.00
59757;BME280;45631;51.962;5.974;2023-02-02T00:19:16;101881.94;;;5.97;100.00
59757;BME280;45631;51.962;5.974;2023-02-02T00:25:19;101879.44;;;5.92;100.00
59757;BME280;45631;51.962;5.974;2023-02-02T00:31:38;101881.03;;;5.98;100.00
59757;BME280;45631;51.962;5.974;2023-02-02T00:34:06;101887.88;;;6.02;100.00
59757;BME280;45631;51.962;5.974;2023-02-02T00:36:34;101884.34;;;6.05;100.00
59757;BME280;45631;51.962;5.974;2023-02-02T00:39:02;101893.00;;;6.07;100.00
59757;BME280;45631;51.962;5.974;2023-02-02T00:41:32;101890.50;;;6.02;100.00
59757;BME280;45631;51.962;5.974;2023-02-02T00:44:03;101895.78;;;6.01;100.00
59757;BME280;45631;51.962;5.974;2023-02-02T00:46:51;101893.88;;;6.06;100.00
59757;BME280;45631;51.962;5.974;2023-02-02T00:49:19;101894.78;;;6.05;100.00
59757;BME280;45631;51.962;5.974;2023-02-02T00:51:47;101895.69;;;6.04;100.00
59757;BME280;45631;51.962;5.974;2023-02-02T00:54:15;101905.19;;;6.06;100.00
59757;BME280;45631;51.962;5.974;2023-02-02T00:56:45;101899.00;;;6.09;100.00
59757;BME280;45631;51.962;5.974;2023-02-02T00:59:13;101888.66;;;6.06;100.00
59757;BME280;45631;51.962;5.974;2023-02-02T01:01:41;101898.28;;;6.04;100.00
59757;BME280;45631;51.962;5.974;2023-02-02T01:04:10;101890.44;;;6.04;100.00
59757;BME280;45631;51.962;5.974;2023-02-02T01:06:38;101884.34;;;6.05;100.00
59757;BME280;45631;51.962;5.974;2023-02-02T01:09:06;101888.72;;;6.04;100.00
59757;BME280;45631;51.962;5.974;2023-02-02T01:11:34;101887.84;;;6.04;100.00
59757;BME280;45631;51.962;5.974;2023-02-02T01:14:03;101891.44;;;6.01;100.00
59757;BME280;45631;51.962;5.974;2023-02-02T01:16:32;101896.59;;;6.03;100.00
59757;BME280;45631;51.962;5.974;2023-02-02T01:19:00;101902.72;;;6.02;100.00
59757;BME280;45631;51.962;5.974;2023-02-02T01:21:28;101894.97;;;5.99;100.00
59757;BME280;45631;51.962;5.974;2023-02-02T01:23:56;101900.09;;;6.02;100.00
59757;BME280;45631;51.962;5.974;2023-02-02T01:26:24;101894.00;;;6.03;100.00
59757;BME280;45631;51.962;5.974;2023-02-02T01:28:52;101894.94;;;6.00;100.00
59757;BME280;45631;51.962;5.974;2023-02-02T01:31:21;101904.28;;;6.07;100.00
59757;BME280;45631;51.962;5.974;2023-02-02T01:33:52;101903.44;;;6.07;100.00
59757;BME280;45631;51.962;5.974;2023-02-02T01:36:21;101903.50;;;6.04;100.00
59757;BME280;45631;51.962;5.974;2023-02-02T01:38:50;101904.44;;;6.03;100.00
59757;BME280;45631;51.962;5.974;2023-02-02T01:41:20;101907.09;;;6.00;100.00
59757;BME280;45631;51.962;5.974;2023-02-02T01:43:52;101913.25;;;5.99;100.00
59757;BME280;45631;51.962;5.974;2023-02-02T01:46:24;101918.34;;;6.03;100.00
59757;BME280;45631;51.962;5.974;2023-02-02T01:49:00;101914.16;;;5.98;100.00
59757;BME280;45631;51.962;5.974;2023-02-02T01:51:34;101917.63;;;5.97;100.00
59757;BME280;45631;51.962;5.974;2023-02-02T01:54:05;101919.44;;;5.95;100.00
59757;BME280;45631;51.962;5.974;2023-02-02T01:56:41;101914.22;;;5.95;100.00
59757;BME280;45631;51.962;5.974;2023-02-02T01:59:13;101914.22;;;5.95;100.00
59757;BME280;45631;51.962;5.974;2023-02-02T02:01:45;101922.03;;;5.95;100.00
59757;BME280;45631;51.962;5.974;2023-02-02T02:04:14;101923.03;;;5.90;100.00
59757;BME280;45631;51.962;5.974;2023-02-02T02:06:46;101921.09;;;5.97;100.00
59757;BME280;45631;51.962;5.974;2023-02-02T02:09:16;101919.50;;;5.91;100.00
59757;BME280;45631;51.962;5.974;2023-02-02T02:11:45;101923.88;;;5.91;100.00
59757;BME280;45631;51.962;5.974;2023-02-02T02:14:14;101914.06;;;6.01;100.00
59757;BME280;45631;51.962;5.974;2023-02-02T02:17:13;101918.72;;;5.89;100.00
59757;BME280;45631;51.962;5.974;2023-02-02T02:27:01;101911.91;;;5.84;100.00
59757;BME280;45631;51.962;5.974;2023-02-02T02:32:49;101911.22;;;5.77;100.00
59757;BME280;45631;51.962;5.974;2023-02-02T02:35:28;101905.94;;;5.79;100.00
59757;BME280;45631;51.962;5.974;2023-02-02T02:38:01;101909.50;;;5.76;100.00
59757;BME280;45631;51.962;5.974;2023-02-02T02:40:35;101912.94;;;5.78;100.00
59757;BME280;45631;51.962;5.974;2023-02-02T02:43:07;101918.31;;;5.72;100.00
59757;BME280;45631;51.962;5.974;2023-02-02T02:45:38;101914.97;;;5.67;100.00
59757;BME280;45631;51.962;5.974;2023-02-02T02:48:12;101911.47;;;5.68;100.00
59757;BME280;45631;51.962;5.974;2023-02-02T02:50:40;101907.19;;;5.65;100.00
59757;BME280;45631;51.962;5.974;2023-02-02T02:53:12;101905.59;;;5.59;100.00
59757;BME280;45631;51.962;5.974;2023-02-02T02:55:46;101905.56;;;5.61;100.00
59757;BME280;45631;51.962;5.974;2023-02-02T03:00:54;101894.19;;;5.64;100.00
59757;BME280;45631;51.962;5.974;2023-02-02T03:03:34;101906.34;;;5.65;100.00
59757;BME280;45631;51.962;5.974;2023-02-02T03:06:11;101889.75;;;5.66;100.00
59757;BME280;45631;51.962;5.974;2023-02-02T03:08:47;101893.28;;;5.65;100.00
59757;BME280;45631;51.962;5.974;2023-02-02T03:11:19;101885.38;;;5.68;100.00
59757;BME280;45631;51.962;5.974;2023-02-02T03:13:48;101880.94;;;5.70;100.00
59757;BME280;45631;51.962;5.974;2023-02-02T03:16:16;101881.78;;;5.72;100.00
59757;BME280;45631;51.962;5.974;2023-02-02T03:18:46;101885.31;;;5.69;100.00
59757;BME280;45631;51.962;5.974;2023-02-02T03:21:14;101888.78;;;5.70;100.00
59757;BME280;45631;51.962;5.974;2023-02-02T03:23:42;101894.91;;;5.69;100.00
59757;BME280;45631;51.962;5.974;2023-02-02T03:26:11;101900.19;;;5.67;100.00
59757;BME280;45631;51.962;5.974;2023-02-02T03:28:39;101897.38;;;5.73;100.00
59757;BME280;45631;51.962;5.974;2023-02-02T03:31:07;101905.16;;;5.75;100.00
59757;BME280;45631;51.962;5.974;2023-02-02T03:33:36;101908.84;;;5.68;100.00
59757;BME280;45631;51.962;5.974;2023-02-02T03:36:07;101920.13;;;5.68;100.00
59757;BME280;45631;51.962;5.974;2023-02-02T03:38:38;101915.81;;;5.69;100.00
59757;BME280;45631;51.962;5.974;2023-02-02T03:41:06;101920.97;;;5.70;100.00
59757;BME280;45631;51.962;5.974;2023-02-02T03:43:34;101920.09;;;5.70;100.00
59757;BME280;45631;51.962;5.974;2023-02-02T03:46:04;101922.72;;;5.70;100.00
59757;BME280;45631;51.962;5.974;2023-02-02T03:48:35;101920.03;;;5.73;100.00
59757;BME280;45631;51.962;5.974;2023-02-02T03:51:09;101913.03;;;5.73;100.00
59757;BME280;45631;51.962;5.974;2023-02-02T03:53:38;101913.13;;;5.70;100.00
59757;BME280;45631;51.962;5.974;2023-02-02T03:56:06;101918.31;;;5.72;100.00
59757;BME280;45631;51.962;5.974;2023-02-02T03:58:35;101908.72;;;5.72;100.00
59757;BME280;45631;51.962;5.974;2023-02-02T04:01:04;101911.47;;;5.68;100.00
59757;BME280;45631;51.962;5.974;2023-02-02T04:03:32;101910.47;;;5.72;100.00
59757;BME280;45631;51.962;5.974;2023-02-02T04:06:00;101917.47;;;5.71;100.00
59757;BME280;45631;51.962;5.974;2023-02-02T04:08:30;101911.31;;;5.74;100.00
59757;BME280;45631;51.962;5.974;2023-02-02T04:10:58;101920.72;;;5.80;100.00
59757;BME280;45631;51.962;5.974;2023-02-02T04:13:26;101912.88;;;5.80;100.00
59757;BME280;45631;51.962;5.974;2023-02-02T04:15:58;101897.28;;;5.76;100.00
59757;BME280;45631;51.962;5.974;2023-02-02T04:18:27;101891.19;;;5.78;100.00
59757;BME280;45631;51.962;5.974;2023-02-02T04:21:00;101890.28;;;5.79;100.00
59757;BME280;45631;51.962;5.974;2023-02-02T04:23:30;101884.19;;;5.80;100.00
59757;BME280;45631;51.962;5.974;2023-02-02T04:25:58;101890.97;;;5.85;100.00
59757;BME280;45631;51.962;5.974;2023-02-02T04:28:27;101887.41;;;5.88;100.00
59757;BME280;45631;51.962;5.974;2023-02-02T04:30:55;101884.75;;;5.89;100.00
59757;BME280;45631;51.962;5.974;2023-02-02T04:33:25;101897.63;;;5.96;100.00
59757;BME280;45631;51.962;5.974;2023-02-02T04:35:53;101887.28;;;5.92;100.00
59757;BME280;45631;51.962;5.974;2023-02-02T04:38:21;101885.50;;;5.95;100.00
59757;BME280;45631;51.962;5.974;2023-02-02T04:40:51;101897.66;;;5.94;100.00
59757;BME280;45631;51.962;5.974;2023-02-02T04:43:19;101890.66;;;5.98;100.00
59757;BME280;45631;51.962;5.974;2023-02-02T04:45:47;101898.47;;;5.98;100.00
59757;BME280;45631;51.962;5.974;2023-02-02T04:48:21;101898.28;;;6.05;100.00
59757;BME280;45631;51.962;5.974;2023-02-02T04:50:57;101904.38;;;6.04;100.00
59757;BME280;45631;51.962;5.974;2023-02-02T04:53:26;101904.34;;;6.06;100.00
59757;BME280;45631;51.962;5.974;2023-02-02T04:55:56;101909.72;;;6.01;100.00
59757;BME280;45631;51.962;5.974;2023-02-02T04:58:24;101910.56;;;6.02;100.00
59757;BME280;45631;51.962;5.974;2023-02-02T05:00:52;101917.34;;;6.07;100.00
59757;BME280;45631;51.962;5.974;2023-02-02T05:03:20;101911.31;;;6.05;100.00
59757;BME280;45631;51.962;5.974;2023-02-02T05:05:48;101913.88;;;6.07;100.00
59757;BME280;45631;51.962;5.974;2023-02-02T05:08:16;101919.00;;;6.10;100.00
59757;BME280;45631;51.962;5.974;2023-02-02T05:10:45;101915.38;;;6.16;100.00
59757;BME280;45631;51.962;5.974;2023-02-02T05:13:14;101923.28;;;6.13;100.00
59757;BME280;45631;51.962;5.974;2023-02-02T05:15:42;101917.19;;;6.12;100.00
59757;BME280;45631;51.962;5.974;2023-02-02T05:18:10;101920.72;;;6.11;100.00
59757;BME280;45631;51.962;5.974;2023-02-02T05:20:38;101928.31;;;6.20;100.00
59757;BME280;45631;51.962;5.974;2023-02-02T05:23:07;101924.06;;;6.16;100.00
59757;BME280;45631;51.962;5.974;2023-02-02T05:25:35;101918.84;;;6.16;100.00
59757;BME280;45631;51.962;5.974;2023-02-02T05:28:06;101917.03;;;6.18;100.00
59757;BME280;45631;51.962;5.974;2023-02-02T05:30:37;101914.25;;;6.24;100.00
59757;BME280;45631;51.962;5.974;2023-02-02T05:33:05;101915.19;;;6.22;100.00
59757;BME280;45631;51.962;5.974;2023-02-02T05:35:34;101919.53;;;6.21;100.00
59757;BME280;45631;51.962;5.974;2023-02-02T05:38:02;101923.72;;;6.27;100.00
59757;BME280;45631;51.962;5.974;2023-02-02T05:40:30;101921.13;;;6.27;100.00
59757;BME280;45631;51.962;5.974;2023-02-02T05:42:58;101928.16;;;6.25;100.00
59757;BME280;45631;51.962;5.974;2023-02-02T05:45:26;101923.78;;;6.25;100.00
59757;BME280;45631;51.962;5.974;2023-02-02T05:47:56;101915.88;;;6.29;100.00
59757;BME280;45631;51.962;5.974;2023-02-02T05:50:24;101927.88;;;6.34;100.00
59757;BME280;45631;51.962;5.974;2023-02-02T05:52:52;101920.06;;;6.34;100.00
59757;BME280;45631;51.962;5.974;2023-02-02T05:55:20;101925.34;;;6.31;100.00
59757;BME280;45631;51.962;5.974;2023-02-02T05:57:49;101925.22;;;6.36;100.00
59757;BME280;45631;51.962;5.974;2023-02-02T06:00:18;101925.94;;;6.41;100.00
59757;BME280;45631;51.962;5.974;2023-02-02T06:02:46;101924.34;;;6.37;100.00
59757;BME280;45631;51.962;5.974;2023-02-02T06:05:16;101928.72;;;6.35;100.00
59757;BME280;45631;51.962;5.974;2023-02-02T06:07:45;101922.66;;;6.34;100.00
59757;BME280;45631;51.962;5.974;2023-02-02T06:10:13;101923.41;;;6.38;100.00
59757;BME280;45631;51.962;5.974;2023-02-02T06:12:41;101925.22;;;6.36;100.00
59757;BME280;45631;51.962;5.974;2023-02-02T06:15:10;101928.69;;;6.36;100.00
59757;BME280;45631;51.962;5.974;2023-02-02T06:17:38;101934.84;;;6.34;100.00
59757;BME280;45631;51.962;5.974;2023-02-02T06:20:07;101939.97;;;6.38;100.00
59757;BME280;45631;51.962;5.974;2023-02-02T06:22:36;101939.13;;;6.36;100.00
59757;BME280;45631;51.962;5.974;2023-02-02T06:25:05;101936.47;;;6.38;100.00
59757;BME280;45631;51.962;5.974;2023-02-02T06:27:34;101943.41;;;6.39;100.00
59757;BME280;45631;51.962;5.974;2023-02-02T06:30:05;101941.69;;;6.38;100.00
59757;BME280;45631;51.962;5.974;2023-02-02T06:32:37;101946.94;;;6.38;100.00
59757;BME280;45631;51.962;5.974;2023-02-02T06:35:06;101946.91;;;6.39;100.00
59757;BME280;45631;51.962;5.974;2023-02-02T06:37:35;101955.69;;;6.37;100.00
59757;BME280;45631;51.962;5.974;2023-02-02T06:40:08;101960.09;;;6.35;100.00
59757;BME280;45631;51.962;5.974;2023-02-02T06:42:36;101955.72;;;6.35;100.00
59757;BME280;45631;51.962;5.974;2023-02-02T06:45:05;101965.16;;;6.41;100.00
59757;BME280;45631;51.962;5.974;2023-02-02T06:47:33;101965.22;;;6.38;100.00
59757;BME280;45631;51.962;5.974;2023-02-02T06:50:02;101969.59;;;6.37;100.00
59757;BME280;45631;51.962;5.974;2023-02-02T06:52:30;101967.66;;;6.44;100.00
59757;BME280;45631;51.962;5.974;2023-02-02T06:54:58;101973.94;;;6.38;100.00
59757;BME280;45631;51.962;5.974;2023-02-02T06:57:28;101980.06;;;6.37;100.00
59757;BME280;45631;51.962;5.974;2023-02-02T06:59:56;101979.16;;;6.38;100.00
59757;BME280;45631;51.962;5.974;2023-02-02T07:02:24;101980.06;;;6.37;100.00
59757;BME280;45631;51.962;5.974;2023-02-02T07:04:52;101988.84;;;6.35;100.00
59757;BME280;45631;51.962;5.974;2023-02-02T07:07:20;101979.22;;;6.37;100.00
59757;BME280;45631;51.962;5.974;2023-02-02T07:09:48;101982.63;;;6.39;100.00
59757;BME280;45631;51.962;5.974;2023-02-02T07:12:24;101982.81;;;6.33;100.00
59757;BME280;45631;51.962;5.974;2023-02-02T07:14:55;101983.66;;;6.33;100.00
59757;BME280;45631;51.962;5.974;2023-02-02T07:17:25;101990.66;;;6.33;100.00
59757;BME280;45631;51.962;5.974;2023-02-02T07:19:53;101979.28;;;6.34;100.00
59757;BME280;45631;51.962;5.974;2023-02-02T07:22:21;101985.22;;;6.39;100.00
59757;BME280;45631;51.962;5.974;2023-02-02T07:29:11;101990.66;;;6.33;100.00
59757;BME280;45631;51.962;5.974;2023-02-02T07:31:42;101981.72;;;6.40;100.00
59757;BME280;45631;51.962;5.974;2023-02-02T07:34:10;101977.59;;;6.31;100.00
59757;BME280;45631;51.962;5.974;2023-02-02T07:36:38;101995.69;;;6.39;100.00
59757;BME280;45631;51.962;5.974;2023-02-02T07:39:06;101996.72;;;6.33;100.00
59757;BME280;45631;51.962;5.974;2023-02-02T07:41:35;102000.22;;;6.32;100.00
59757;BME280;45631;51.962;5.974;2023-02-02T07:44:04;101995.72;;;6.37;100.00
59757;BME280;45631;51.962;5.974;2023-02-02T07:46:32;102005.41;;;6.34;100.00
59757;BME280;45631;51.962;5.974;2023-02-02T07:49:03;102007.22;;;6.32;100.00
59757;BME280;45631;51.962;5.974;2023-02-02T07:51:31;102006.28;;;6.34;100.00
59757;BME280;45631;51.962;5.974;2023-02-02T07:54:00;102018.47;;;6.34;100.00
59757;BME280;45631;51.962;5.974;2023-02-02T07:56:31;102020.19;;;6.35;100.00
59757;BME280;45631;51.962;5.974;2023-02-02T07:58:59;102018.34;;;6.38;100.00
59757;BME280;45631;51.962;5.974;2023-02-02T08:01:27;102027.94;;;6.38;100.00
59757;BME280;45631;51.962;5.974;2023-02-02T08:03:57;102031.31;;;6.41;100.00
59757;BME280;45631;51.962;5.974;2023-02-02T08:06:29;102035.75;;;6.39;100.00
59757;BME280;45631;51.962;5.974;2023-02-02T08:08:59;102036.59;;;6.40;100.00
59757;BME280;45631;51.962;5.974;2023-02-02T08:11:30;102040.06;;;6.40;100.00
59757;BME280;45631;51.962;5.974;2023-02-02T08:14:00;102037.53;;;6.37;100.00
59757;BME280;45631;51.962;5.974;2023-02-02T08:16:30;102036.69;;;6.37;100.00
59757;BME280;45631;51.962;5.974;2023-02-02T08:18:58;102039.31;;;6.35;100.00
59757;BME280;45631;51.962;5.974;2023-02-02T08:21:28;102041.09;;;6.35;100.00
59757;BME280;45631;51.962;5.974;2023-02-02T08:23:59;102029.59;;;6.40;100.00
59757;BME280;45631;51.962;5.974;2023-02-02T08:26:29;102039.25;;;6.38;100.00
59757;BME280;45631;51.962;5.974;2023-02-02T08:28:59;102042.66;;;6.40;100.00
59757;BME280;45631;51.962;5.974;2023-02-02T08:31:29;102045.28;;;6.40;100.00
59757;BME280;45631;51.962;5.974;2023-02-02T08:33:58;102046.91;;;6.45;100.00
59757;BME280;45631;51.962;5.974;2023-02-02T08:36:29;102054.84;;;6.41;100.00
59757;BME280;45631;51.962;5.974;2023-02-02T08:38:59;102050.44;;;6.43;100.00
59757;BME280;45631;51.962;5.974;2023-02-02T08:41:29;102057.25;;;6.49;100.00
59757;BME280;45631;51.962;5.974;2023-02-02T08:43:57;102059.22;;;6.41;100.00
59757;BME280;45631;51.962;5.974;2023-02-02T08:46:26;102059.03;;;6.47;100.00
59757;BME280;45631;51.962;5.974;2023-02-02T08:48:54;102067.66;;;6.51;100.00
59757;BME280;45631;51.962;5.974;2023-02-02T08:51:22;102072.00;;;6.50;100.00
59757;BME280;45631;51.962;5.974;2023-02-02T08:53:52;102076.44;;;6.48;100.00
59757;BME280;45631;51.962;5.974;2023-02-02T08:56:21;102073.63;;;6.54;100.00
59757;BME280;45631;51.962;5.974;2023-02-02T08:58:53;102082.41;;;6.53;100.00
59757;BME280;45631;51.962;5.974;2023-02-02T09:01:23;102080.53;;;6.57;100.00
59757;BME280;45631;51.962;5.974;2023-02-02T09:03:52;102088.31;;;6.58;100.00
59757;BME280;45631;51.962;5.974;2023-02-02T09:06:25;102083.97;;;6.59;100.00
59757;BME280;45631;51.962;5.974;2023-02-02T09:08:56;102093.41;;;6.65;100.00
59757;BME280;45631;51.962;5.974;2023-02-02T09:11:24;102093.50;;;6.62;100.00
59757;BME280;45631;51.962;5.974;2023-02-02T09:13:54;102093.50;;;6.62;100.00
59757;BME280;45631;51.962;5.974;2023-02-02T09:16:23;102097.72;;;6.66;100.00
59757;BME280;45631;51.962;5.974;2023-02-02T09:18:53;102101.97;;;6.70;100.00
59757;BME280;45631;51.962;5.974;2023-02-02T09:21:22;102107.16;;;6.71;100.00
59757;BME280;45631;51.962;5.974;2023-02-02T09:23:51;102121.94;;;6.72;100.00
59757;BME280;45631;51.962;5.974;2023-02-02T09:26:23;102117.41;;;6.77;100.00
59757;BME280;45631;51.962;5.974;2023-02-02T09:28:53;102127.84;;;6.79;100.00
59757;BME280;45631;51.962;5.974;2023-02-02T09:31:22;102126.03;;;6.81;100.00
59757;BME280;45631;51.962;5.974;2023-02-02T09:33:51;102138.22;;;6.82;100.00
59757;BME280;45631;51.962;5.974;2023-02-02T09:36:21;102133.84;;;6.83;100.00
59757;BME280;45631;51.962;5.974;2023-02-02T09:38:50;102152.09;;;6.84;100.00
59757;BME280;45631;51.962;5.974;2023-02-02T09:42:03;102143.19;;;6.91;100.00
59757;BME280;45631;51.962;5.974;2023-02-02T09:44:48;102145.63;;;6.98;100.00
59757;BME280;45631;51.962;5.974;2023-02-02T09:47:20;102152.56;;;6.99;100.00
59757;BME280;45631;51.962;5.974;2023-02-02T09:49:57;102150.84;;;6.98;100.00
59757;BME280;45631;51.962;5.974;2023-02-02T09:52:32;102149.84;;;7.02;100.00
59757;BME280;45631;51.962;5.974;2023-02-02T09:55:04;102155.97;;;7.01;100.00
59757;BME280;45631;51.962;5.974;2023-02-02T09:57:39;102160.31;;;7.02;100.00
59757;BME280;45631;51.962;5.974;2023-02-02T10:00:33;102155.88;;;7.05;100.00
59757;BME280;45631;51.962;5.974;2023-02-02T10:03:05;102168.91;;;7.07;100.00
59757;BME280;45631;51.962;5.974;2023-02-02T10:05:44;102168.75;;;7.11;100.00
59757;BME280;45631;51.962;5.974;2023-02-02T10:08:34;102174.03;;;7.10;100.00
59757;BME280;45631;51.962;5.974;2023-02-02T10:11:10;102174.84;;;7.12;100.00
59757;BME280;45631;51.962;5.974;2023-02-02T10:13:46;102172.25;;;7.12;100.00
59757;BME280;45631;51.962;5.974;2023-02-02T10:16:16;102168.63;;;7.16;100.00
59757;BME280;45631;51.962;5.974;2023-02-02T10:18:50;102171.19;;;7.18;100.00
59757;BME280;45631;51.962;5.974;2023-02-02T10:21:26;102179.66;;;7.26;100.00
59757;BME280;45631;51.962;5.974;2023-02-02T10:24:01;102186.53;;;7.30;100.00
59757;BME280;45631;51.962;5.974;2023-02-02T10:26:35;102192.44;;;7.37;100.00
59757;BME280;45631;51.962;5.974;2023-02-02T10:29:11;102188.25;;;7.31;100.00
59757;BME280;45631;51.962;5.974;2023-02-02T10:31:45;102199.47;;;7.35;100.00
59757;BME280;45631;51.962;5.974;2023-02-02T10:34:20;102196.63;;;7.42;100.00
59757;BME280;45631;51.962;5.974;2023-02-02T10:37:00;102194.84;;;7.43;100.00
59757;BME280;45631;51.962;5.974;2023-02-02T10:39:39;102197.56;;;7.40;100.00
59757;BME280;45631;51.962;5.974;2023-02-02T10:42:16;102214.91;;;7.44;100.00
59757;BME280;45631;51.962;5.974;2023-02-02T10:44:52;102216.63;;;7.45;100.00
59757;BME280;45631;51.962;5.974;2023-02-02T10:47:25;102217.50;;;7.44;100.00
59757;BME280;45631;51.962;5.974;2023-02-02T10:50:05;102222.69;;;7.45;100.00
59757;BME280;45631;51.962;5.974;2023-02-02T10:52:34;102213.00;;;7.49;100.00
59757;BME280;45631;51.962;5.974;2023-02-02T10:55:07;102215.56;;;7.51;100.00
59757;BME280;45631;51.962;5.974;2023-02-02T10:57:56;102204.78;;;7.61;100.00
59757;BME280;45631;51.962;5.974;2023-02-02T11:00:32;102207.66;;;7.52;100.00
59757;BME280;45631;51.962;5.974;2023-02-02T11:03:02;102196.34;;;7.52;100.00
59757;BME280;45631;51.962;5.974;2023-02-02T11:05:33;102200.63;;;7.54;100.00
59757;BME280;45631;51.962;5.974;2023-02-02T11:08:30;102204.72;;;7.63;100.00
59757;BME280;45631;51.962;5.974;2023-02-02T11:11:08;102202.06;;;7.65;100.00
59757;BME280;45631;51.962;5.974;2023-02-02T11:13:41;102202.09;;;7.63;100.00
59757;BME280;45631;51.962;5.974;2023-02-02T11:16:24;102201.94;;;7.69;100.00
59757;BME280;45631;51.962;5.974;2023-02-02T11:19:21;102202.81;;;7.68;100.00
59757;BME280;45631;51.962;5.974;2023-02-02T11:21:51;102194.91;;;7.70;100.00
59757;BME280;45631;51.962;5.974;2023-02-02T11:24:22;102220.25;;;7.69;100.00
59757;BME280;45631;51.962;5.974;2023-02-02T11:26:53;102211.56;;;7.67;100.00
59757;BME280;45631;51.962;5.974;2023-02-02T11:29:26;102209.84;;;7.66;100.00
59757;BME280;45631;51.962;5.974;2023-02-02T11:31:57;102201.09;;;7.67;100.00
59757;BME280;45631;51.962;5.974;2023-02-02T11:34:44;102202.94;;;7.65;100.00
59757;BME280;45631;51.962;5.974;2023-02-02T11:37:14;102199.38;;;7.66;100.00
59757;BME280;45631;51.962;5.974;2023-02-02T11:39:43;102195.91;;;7.66;100.00
59757;BME280;45631;51.962;5.974;2023-02-02T11:42:15;102199.38;;;7.68;100.00
59757;BME280;45631;51.962;5.974;2023-02-02T11:44:46;102192.50;;;7.64;100.00
59757;BME280;45631;51.962;5.974;2023-02-02T11:47:23;102189.97;;;7.60;100.00
59757;BME280;45631;51.962;5.974;2023-02-02T11:49:53;102201.97;;;7.68;100.00
59757;BME280;45631;51.962;5.974;2023-02-02T11:52:27;102199.38;;;7.66;100.00
59757;BME280;45631;51.962;5.974;2023-02-02T11:55:00;102208.44;;;7.56;100.00
59757;BME280;45631;51.962;5.974;2023-02-02T11:57:29;102198.81;;;7.56;100.00
59757;BME280;45631;51.962;5.974;2023-02-02T12:00:15;102204.78;;;7.61;100.00
59757;BME280;45631;51.962;5.974;2023-02-02T12:02:47;102198.75;;;7.59;100.00
59757;BME280;45631;51.962;5.974;2023-02-02T12:05:35;102204.00;;;7.58;100.00
59757;BME280;45631;51.962;5.974;2023-02-02T12:08:03;102196.97;;;7.60;100.00
59757;BME280;45631;51.962;5.974;2023-02-02T12:10:40;102205.59;;;7.64;100.00
59757;BME280;45631;51.962;5.974;2023-02-02T12:13:14;102201.31;;;7.61;100.00
59757;BME280;45631;51.962;5.974;2023-02-02T12:15:51;102203.97;;;7.59;100.00
59757;BME280;45631;51.962;5.974;2023-02-02T12:18:39;102208.34;;;7.59;100.00
59757;BME280;45631;51.962;5.974;2023-02-02T12:21:17;102205.78;;;7.57;100.00
59757;BME280;45631;51.962;5.974;2023-02-02T12:23:54;102201.38;;;7.58;100.00
59757;BME280;45631;51.962;5.974;2023-02-02T12:26:27;102197.91;;;7.57;100.00
59757;BME280;45631;51.962;5.974;2023-02-02T12:29:14;102201.25;;;7.63;100.00
59757;BME280;45631;51.962;5.974;2023-02-02T12:31:52;102198.53;;;7.66;100.00
59757;BME280;45631;51.962;5.974;2023-02-02T12:34:31;102206.28;;;7.70;100.00
59757;BME280;45631;51.962;5.974;2023-02-02T12:37:07;102193.25;;;7.67;100.00
59757;BME280;45631;51.962;5.974;2023-02-02T12:39:51;102196.88;;;7.63;100.00
59757;BME280;45631;51.962;5.974;2023-02-02T12:42:39;102193.50;;;7.59;100.00
59757;BME280;45631;51.962;5.974;2023-02-02T12:45:31;102193.50;;;7.59;100.00
59757;BME280;45631;51.962;5.974;2023-02-02T12:48:12;102197.06;;;7.57;100.00
59757;BME280;45631;51.962;5.974;2023-02-02T12:50:56;102182.38;;;7.53;100.00
59757;BME280;45631;51.962;5.974;2023-02-02T12:53:39;102188.44;;;7.53;100.00
59757;BME280;45631;51.962;5.974;2023-02-02T12:56:18;102192.88;;;7.51;100.00
59757;BME280;45631;51.962;5.974;2023-02-02T12:58:57;102189.34;;;7.52;100.00
59757;BME280;45631;51.962;5.974;2023-02-02T13:01:40;102188.59;;;7.49;100.00
59757;BME280;45631;51.962;5.974;2023-02-02T13:04:22;102189.41;;;7.51;100.00
59757;BME280;45631;51.962;5.974;2023-02-02T13:07:11;102186.00;;;7.47;100.00
59757;BME280;45631;51.962;5.974;2023-02-02T13:09:48;102186.81;;;7.49;100.00
59757;BME280;45631;51.962;5.974;2023-02-02T13:12:21;102194.72;;;7.48;100.00
59757;BME280;45631;51.962;5.974;2023-02-02T13:14:53;102197.47;;;7.43;100.00
59757;BME280;45631;51.962;5.974;2023-02-02T13:17:24;102198.28;;;7.45;100.00
59757;BME280;45631;51.962;5.974;2023-02-02T13:19:55;102195.69;;;7.45;100.00
59757;BME280;45631;51.962;5.974;2023-02-02T13:22:28;102189.59;;;7.44;100.00
59757;BME280;45631;51.962;5.974;2023-02-02T13:25:00;102194.97;;;7.40;100.00
59757;BME280;45631;51.962;5.974;2023-02-02T13:27:30;102188.19;;;7.33;100.00
59757;BME280;45631;51.962;5.974;2023-02-02T13:30:02;102189.09;;;7.32;100.00
59757;BME280;45631;51.962;5.974;2023-02-02T13:32:32;102189.16;;;7.30;100.00
59757;BME280;45631;51.962;5.974;2023-02-02T13:35:04;102181.34;;;7.28;100.00
59757;BME280;45631;51.962;5.974;2023-02-02T13:37:38;102198.03;;;7.24;100.00
59757;BME280;45631;51.962;5.974;2023-02-02T13:40:19;102186.63;;;7.27;100.00